Time;durP1;ratioP1;P1;durP2;ratioP2;P2;SDS_P1;SDS_P2;PMS_P1;PMS_P2;Temp;Humidity;BMP_temperature;BMP_pressure;BME280_temperature;BME280_humidity;BME280_pressure;Samples;Min_cycle;Max_cycle;Signal;HPM_P1;HPM_P2
2023/08/20 00:00:00;;;;;;;9.45;6.63;;;23.20;99.90;;;;;;5054418;28;20209;-66
2023/08/20 00:02:28;;;;;;;7.40;6.60;;;23.20;99.90;;;;;;5053728;28;20228;-66
2023/08/20 00:04:58;;;;;;;9.63;6.43;;;23.20;99.90;;;;;;5053932;28;20206;-65
2023/08/20 00:07:25;;;;;;;7.80;7.00;;;23.30;99.90;;;;;;5053346;28;20206;-65
2023/08/20 00:09:52;;;;;;;8.95;6.35;;;23.30;99.90;;;;;;5054394;28;20216;-64
2023/08/20 00:12:21;;;;;;;9.57;6.80;;;23.20;99.90;;;;;;5053858;28;20253;-66
2023/08/20 00:14:58;;;;;;;9.15;6.75;;;23.10;99.90;;;;;;5053733;28;20205;-65
2023/08/20 00:17:26;;;;;;;7.30;6.43;;;23.10;99.90;;;;;;5053601;28;20209;-64
2023/08/20 00:19:54;;;;;;;8.50;6.47;;;23.10;99.90;;;;;;5053696;28;20577;-64
2023/08/20 00:22:22;;;;;;;7.63;6.40;;;23.20;99.90;;;;;;5053217;28;20205;-67
2023/08/20 00:24:49;;;;;;;8.23;6.45;;;23.20;99.90;;;;;;5053068;28;20259;-65
2023/08/20 00:27:16;;;;;;;8.85;7.18;;;23.20;99.90;;;;;;5052598;28;20661;-64
2023/08/20 00:29:44;;;;;;;12.38;6.93;;;23.30;99.90;;;;;;5052911;28;20375;-64
2023/08/20 00:32:11;;;;;;;10.45;7.45;;;23.30;99.90;;;;;;5052765;28;20233;-65
2023/08/20 00:34:38;;;;;;;7.00;6.30;;;23.30;99.90;;;;;;5052819;28;20245;-65
2023/08/20 00:37:05;;;;;;;8.80;6.93;;;23.30;99.90;;;;;;5052282;28;20206;-64
2023/08/20 00:39:31;;;;;;;8.10;6.78;;;23.40;99.90;;;;;;5052771;28;20232;-67
2023/08/20 00:41:58;;;;;;;9.10;6.82;;;23.40;99.90;;;;;;5052633;28;20201;-65
2023/08/20 00:44:25;;;;;;;8.93;7.18;;;23.50;99.90;;;;;;5052440;28;20267;-65
2023/08/20 00:46:54;;;;;;;7.45;6.43;;;23.50;99.90;;;;;;5052514;28;20210;-65
2023/08/20 00:49:21;;;;;;;9.32;6.82;;;23.50;99.90;;;;;;5052563;28;20236;-64
2023/08/20 00:51:48;;;;;;;11.77;6.82;;;23.40;99.90;;;;;;5052384;28;20701;-65
2023/08/20 00:54:15;;;;;;;7.97;7.18;;;23.40;99.90;;;;;;5052416;28;20228;-64
2023/08/20 00:56:42;;;;;;;8.48;6.95;;;23.50;99.90;;;;;;5052284;28;20205;-64
2023/08/20 00:59:09;;;;;;;7.32;6.57;;;23.40;99.90;;;;;;5052410;28;20236;-65
2023/08/20 01:01:36;;;;;;;9.43;7.68;;;23.40;99.90;;;;;;5052280;28;20646;-64
2023/08/20 01:04:05;;;;;;;9.35;7.30;;;23.50;99.90;;;;;;5052268;28;20283;-65
2023/08/20 01:06:40;;;;;;;10.48;6.60;;;23.40;99.90;;;;;;5052153;28;20205;-64
2023/08/20 01:09:24;;;;;;;9.23;6.93;;;23.40;99.90;;;;;;5052435;28;20245;-65
2023/08/20 01:11:56;;;;;;;12.05;7.25;;;23.30;99.90;;;;;;5052191;28;20225;-65
2023/08/20 01:14:23;;;;;;;10.38;7.10;;;23.30;99.90;;;;;;5052124;28;20225;-65
2023/08/20 01:16:50;;;;;;;8.10;6.88;;;23.30;99.90;;;;;;5051976;28;20221;-64
2023/08/20 01:19:19;;;;;;;10.25;7.03;;;23.20;99.90;;;;;;5052286;28;20202;-66
2023/08/20 01:22:13;;;;;;;10.25;7.03;;;23.10;99.90;;;;;;5051943;28;20568;-64
2023/08/20 01:24:48;;;;;;;9.52;7.78;;;22.90;99.90;;;;;;5020976;28;20226;-65
2023/08/20 01:27:40;;;;;;;8.63;7.55;;;22.90;99.90;;;;;;5051641;28;20235;-65
2023/08/20 01:30:09;;;;;;;7.97;7.18;;;22.90;99.90;;;;;;5051987;28;20319;-64
2023/08/20 01:32:37;;;;;;;9.57;7.13;;;22.90;99.90;;;;;;5051731;28;20232;-65
2023/08/20 01:35:06;;;;;;;12.13;7.28;;;22.90;99.90;;;;;;5051928;28;20206;-66
2023/08/20 01:37:32;;;;;;;9.13;7.18;;;22.90;99.90;;;;;;5051902;28;20209;-65
2023/08/20 01:39:59;;;;;;;10.13;7.18;;;22.90;99.90;;;;;;5051594;28;20308;-65
2023/08/20 01:42:26;;;;;;;7.53;6.80;;;22.90;99.90;;;;;;5051408;28;20229;-66
2023/08/20 01:44:52;;;;;;;12.93;6.93;;;22.90;99.90;;;;;;5065696;22;20593;-61
2023/08/20 01:47:20;;;;;;;8.63;7.47;;;22.90;99.90;;;;;;5050530;28;20580;-59
2023/08/20 01:49:47;;;;;;;7.63;6.80;;;22.90;99.90;;;;;;5051402;28;20610;-59
2023/08/20 01:52:13;;;;;;;9.35;7.75;;;22.90;99.90;;;;;;5051453;28;20850;-57
2023/08/20 01:54:40;;;;;;;11.63;7.28;;;22.90;99.90;;;;;;5051314;28;20225;-57
2023/08/20 01:57:07;;;;;;;7.97;7.18;;;22.90;99.90;;;;;;5051238;28;20205;-59
2023/08/20 01:59:34;;;;;;;10.18;7.30;;;22.90;99.90;;;;;;5051501;28;20275;-57
2023/08/20 02:02:00;;;;;;;7.65;6.95;;;22.80;99.90;;;;;;5051658;28;20209;-58
2023/08/20 02:04:28;;;;;;;10.73;7.10;;;22.80;99.90;;;;;;5051347;28;20249;-58
2023/08/20 02:06:55;;;;;;;8.10;7.15;;;22.80;99.90;;;;;;5050933;28;20214;-57
2023/08/20 02:09:22;;;;;;;7.70;7.00;;;22.80;99.90;;;;;;5051069;28;20633;-58
2023/08/20 02:11:48;;;;;;;10.45;7.03;;;22.80;99.90;;;;;;5051233;28;20585;-59
2023/08/20 02:14:15;;;;;;;9.30;6.72;;;22.70;99.90;;;;;;5051301;28;20316;-60
2023/08/20 02:16:42;;;;;;;10.27;6.93;;;22.70;99.90;;;;;;5050955;28;20205;-58
2023/08/20 02:19:09;;;;;;;8.23;7.18;;;22.60;99.90;;;;;;5051156;28;20212;-58
2023/08/20 02:21:37;;;;;;;10.60;6.53;;;22.60;99.90;;;;;;5051160;28;20209;-59
2023/08/20 02:24:04;;;;;;;7.72;6.93;;;22.50;99.90;;;;;;5050873;28;20748;-58
2023/08/20 02:26:31;;;;;;;9.27;7.43;;;22.50;99.90;;;;;;5050883;28;20209;-58
2023/08/20 02:28:57;;;;;;;11.88;6.93;;;22.50;99.90;;;;;;5051067;28;20209;-59
2023/08/20 02:31:24;;;;;;;8.30;7.43;;;22.50;99.90;;;;;;5050950;28;20236;-58
2023/08/20 02:33:51;;;;;;;11.27;7.60;;;22.40;99.90;;;;;;5050843;28;20229;-58
2023/08/20 02:36:17;;;;;;;8.77;6.78;;;22.40;99.90;;;;;;5050443;28;20226;-59
2023/08/20 02:38:46;;;;;;;8.02;7.22;;;22.40;99.90;;;;;;5050978;28;20734;-58
2023/08/20 02:41:13;;;;;;;8.77;7.07;;;22.40;99.90;;;;;;5050803;28;20209;-59
2023/08/20 02:43:40;;;;;;;11.43;7.65;;;22.40;99.90;;;;;;5050651;28;20249;-60
2023/08/20 02:46:07;;;;;;;10.05;7.60;;;22.30;99.90;;;;;;5051055;28;20213;-57
2023/08/20 02:48:34;;;;;;;9.55;7.82;;;22.20;99.90;;;;;;5051274;28;20265;-58
2023/08/20 02:51:00;;;;;;;8.60;7.40;;;22.20;99.90;;;;;;5050795;28;20209;-58
2023/08/20 02:53:27;;;;;;;8.75;7.80;;;22.20;99.90;;;;;;5051088;28;20229;-59
2023/08/20 02:55:56;;;;;;;8.05;7.25;;;22.20;99.90;;;;;;5050870;28;20216;-58
2023/08/20 02:58:22;;;;;;;8.02;7.22;;;22.20;99.90;;;;;;5050774;28;20552;-58
2023/08/20 03:00:49;;;;;;;10.52;7.53;;;22.10;99.90;;;;;;5053121;28;20206;-58
2023/08/20 03:03:16;;;;;;;12.25;7.18;;;22.00;99.90;;;;;;5054656;28;20320;-59
2023/08/20 03:05:43;;;;;;;9.38;7.45;;;21.80;99.90;;;;;;5054405;28;20202;-58
2023/08/20 03:08:10;;;;;;;8.35;7.28;;;21.70;99.90;;;;;;5054755;28;20495;-57
2023/08/20 03:10:37;;;;;;;9.73;7.68;;;21.70;99.90;;;;;;5054846;28;20259;-57
2023/08/20 03:13:05;;;;;;;20.23;8.38;;;21.80;99.90;;;;;;5054612;28;20240;-57
2023/08/20 03:15:32;;;;;;;8.30;7.50;;;21.80;99.90;;;;;;5054556;28;20201;-57
2023/08/20 03:17:58;;;;;;;8.68;7.22;;;21.90;99.90;;;;;;5054132;28;20645;-57
2023/08/20 03:20:25;;;;;;;8.23;7.45;;;21.90;99.90;;;;;;5054392;28;20220;-57
2023/08/20 03:22:52;;;;;;;11.23;7.85;;;21.90;99.90;;;;;;5054443;28;20220;-57
2023/08/20 03:25:19;;;;;;;10.07;7.68;;;21.90;99.90;;;;;;5054264;28;20216;-58
2023/08/20 03:27:45;;;;;;;8.50;7.35;;;21.90;99.90;;;;;;5054044;28;20209;-57
2023/08/20 03:30:14;;;;;;;9.80;7.50;;;21.80;99.90;;;;;;5054656;28;20213;-57
2023/08/20 03:32:41;;;;;;;8.93;7.38;;;21.80;99.90;;;;;;5053992;28;20225;-57
2023/08/20 03:35:08;;;;;;;10.00;7.55;;;21.80;99.90;;;;;;5054007;28;20683;-58
2023/08/20 03:37:35;;;;;;;8.77;7.97;;;21.80;99.90;;;;;;5053700;28;20216;-57
2023/08/20 03:40:01;;;;;;;9.10;7.65;;;21.70;99.90;;;;;;5053889;28;20614;-59
2023/08/20 03:42:28;;;;;;;8.75;7.85;;;21.70;99.90;;;;;;5054000;28;20205;-59
2023/08/20 03:44:55;;;;;;;12.98;7.95;;;21.60;99.90;;;;;;5053922;28;20241;-58
2023/08/20 03:47:23;;;;;;;9.50;7.57;;;21.60;99.90;;;;;;5053680;28;20660;-59
2023/08/20 03:49:49;;;;;;;8.77;7.88;;;21.70;99.90;;;;;;5054328;28;20614;-59
2023/08/20 03:52:16;;;;;;;10.05;8.13;;;21.80;99.90;;;;;;5054007;28;20213;-60
2023/08/20 03:54:43;;;;;;;9.40;7.78;;;21.80;99.90;;;;;;5053668;28;20233;-56
2023/08/20 03:57:09;;;;;;;9.13;8.18;;;21.80;99.90;;;;;;5053570;28;20697;-63
2023/08/20 03:59:36;;;;;;;9.35;7.65;;;21.90;99.90;;;;;;5053709;28;20215;-57
2023/08/20 04:02:03;;;;;;;9.65;8.07;;;21.90;99.90;;;;;;5053370;28;20217;-58
2023/08/20 04:04:31;;;;;;;9.93;7.82;;;21.90;99.90;;;;;;5053450;28;20230;-59
2023/08/20 04:06:58;;;;;;;8.32;7.50;;;21.70;99.90;;;;;;5053287;28;20216;-58
2023/08/20 04:09:25;;;;;;;7.82;7.05;;;21.80;99.90;;;;;;5053638;28;20215;-58
2023/08/20 04:11:51;;;;;;;9.68;7.70;;;21.80;99.90;;;;;;5053024;28;20201;-57
2023/08/20 04:14:18;;;;;;;8.65;7.80;;;21.80;99.90;;;;;;5053118;28;20685;-59
2023/08/20 04:16:45;;;;;;;10.85;8.40;;;21.80;99.90;;;;;;5053156;28;20210;-59
2023/08/20 04:19:12;;;;;;;10.73;8.30;;;21.70;99.90;;;;;;5053490;28;20296;-58
2023/08/20 04:21:40;;;;;;;9.60;7.88;;;21.70;99.90;;;;;;5053129;28;20210;-58
2023/08/20 04:24:07;;;;;;;9.18;8.13;;;21.70;99.90;;;;;;5052752;28;20701;-57
2023/08/20 04:26:34;;;;;;;9.98;8.60;;;21.60;99.90;;;;;;5052783;28;20267;-59
2023/08/20 04:29:01;;;;;;;9.48;8.30;;;21.60;99.90;;;;;;5053130;28;20205;-59
2023/08/20 04:31:27;;;;;;;9.88;8.73;;;21.60;99.90;;;;;;5053376;28;20209;-57
2023/08/20 04:33:54;;;;;;;9.90;7.50;;;21.60;99.90;;;;;;5053087;28;20233;-59
2023/08/20 04:36:21;;;;;;;10.23;8.02;;;21.60;99.90;;;;;;5052932;28;20216;-60
2023/08/20 04:38:49;;;;;;;9.52;8.27;;;21.60;99.90;;;;;;5053194;28;20212;-59
2023/08/20 04:41:15;;;;;;;8.73;7.85;;;21.60;99.90;;;;;;5053591;28;20217;-58
2023/08/20 04:43:42;;;;;;;12.57;8.45;;;21.60;99.90;;;;;;5052648;28;20230;-59
2023/08/20 04:46:09;;;;;;;8.65;7.80;;;21.70;99.90;;;;;;5052773;28;20719;-59
2023/08/20 04:48:35;;;;;;;11.45;8.55;;;21.70;99.90;;;;;;5053107;28;20206;-59
2023/08/20 04:51:03;;;;;;;9.85;8.35;;;21.70;99.90;;;;;;5053020;28;20237;-58
2023/08/20 04:53:30;;;;;;;10.50;8.35;;;21.80;99.90;;;;;;5052618;28;20324;-59
2023/08/20 04:55:59;;;;;;;10.40;9.40;;;21.90;99.90;;;;;;5052339;28;20626;-58
2023/08/20 04:58:25;;;;;;;9.23;8.20;;;22.00;99.90;;;;;;5052719;28;20205;-58
2023/08/20 05:00:52;;;;;;;11.55;8.30;;;22.10;99.90;;;;;;5052858;28;20600;-58
2023/08/20 05:03:19;;;;;;;11.70;8.68;;;22.20;99.90;;;;;;5052610;28;20226;-58
2023/08/20 05:05:49;;;;;;;10.30;7.85;;;22.20;99.90;;;;;;5052397;28;20282;-62
2023/08/20 05:08:16;;;;;;;11.65;8.57;;;22.30;99.90;;;;;;5052469;28;20205;-58
2023/08/20 05:10:43;;;;;;;8.38;7.45;;;22.40;99.90;;;;;;5052490;28;20209;-59
2023/08/20 05:13:11;;;;;;;8.43;7.63;;;22.50;99.90;;;;;;5052363;28;20233;-60
2023/08/20 05:15:38;;;;;;;13.15;8.07;;;22.60;99.90;;;;;;5052096;28;20709;-61
2023/08/20 05:18:04;;;;;;;8.25;7.45;;;22.70;99.90;;;;;;5052275;28;20228;-58
2023/08/20 05:20:31;;;;;;;8.80;7.30;;;22.80;99.90;;;;;;5052248;28;20205;-59
2023/08/20 05:22:58;;;;;;;8.40;7.32;;;22.90;99.90;;;;;;5051162;28;20225;-60
2023/08/20 05:25:24;;;;;;;9.23;7.63;;;23.00;99.90;;;;;;5051935;28;20209;-58
2023/08/20 05:27:51;;;;;;;8.75;7.30;;;23.10;99.90;;;;;;5051943;28;20319;-59
2023/08/20 05:30:19;;;;;;;9.70;7.65;;;23.20;99.90;;;;;;5052142;28;20209;-58
2023/08/20 05:32:46;;;;;;;9.35;7.82;;;23.40;99.90;;;;;;5051792;28;20225;-59
2023/08/20 05:35:13;;;;;;;8.05;7.25;;;23.50;99.90;;;;;;5051949;28;20205;-58
2023/08/20 05:37:39;;;;;;;10.02;7.47;;;23.60;99.90;;;;;;5051468;28;20205;-59
2023/08/20 05:40:08;;;;;;;9.30;7.35;;;23.70;99.90;;;;;;5051984;28;20217;-58
2023/08/20 05:42:35;;;;;;;8.75;7.43;;;23.80;99.90;;;;;;5052037;28;20263;-59
2023/08/20 05:45:02;;;;;;;9.07;7.10;;;24.00;99.90;;;;;;5051772;28;20236;-59
2023/08/20 05:47:30;;;;;;;7.90;7.10;;;24.40;99.90;;;;;;5051355;28;20691;-59
2023/08/20 05:49:57;;;;;;;8.35;6.40;;;25.10;99.90;;;;;;5051796;28;20267;-60
2023/08/20 05:52:23;;;;;;;6.70;6.07;;;26.10;99.90;;;;;;5051672;28;20204;-63
2023/08/20 05:54:50;;;;;;;6.82;6.13;;;27.00;99.90;;;;;;5051541;28;20229;-62
2023/08/20 05:57:17;;;;;;;7.13;6.03;;;27.90;99.90;;;;;;5051477;28;20217;-63
2023/08/20 05:59:43;;;;;;;9.75;5.78;;;28.70;99.90;;;;;;5051840;28;20214;-60
2023/08/20 06:02:10;;;;;;;8.13;6.07;;;29.60;99.90;;;;;;5051564;28;20373;-61
2023/08/20 06:04:38;;;;;;;6.45;5.57;;;30.50;99.90;;;;;;5051374;28;20232;-62
2023/08/20 06:07:05;;;;;;;7.70;5.90;;;31.30;99.90;;;;;;5050989;28;20275;-60
2023/08/20 06:09:32;;;;;;;6.93;5.15;;;31.90;99.90;;;;;;5051608;28;20201;-61
2023/08/20 06:11:58;;;;;;;8.80;5.35;;;32.50;99.90;;;;;;5051416;28;20205;-60
2023/08/20 06:14:25;;;;;;;7.13;5.60;;;33.40;99.90;;;;;;5051272;28;20233;-62
2023/08/20 06:16:52;;;;;;;5.85;5.25;;;34.10;99.90;;;;;;5051348;28;20201;-60
2023/08/20 06:19:18;;;;;;;8.80;5.25;;;34.80;99.90;;;;;;5051594;28;20213;-59
2023/08/20 06:21:47;;;;;;;7.18;5.13;;;35.40;99.90;;;;;;5051624;28;20318;-59
2023/08/20 06:24:13;;;;;;;7.50;5.10;;;35.90;99.90;;;;;;5051762;28;20229;-60
2023/08/20 06:26:40;;;;;;;5.80;5.18;;;36.30;99.90;;;;;;5051036;28;20659;-61
2023/08/20 06:29:07;;;;;;;8.50;5.40;;;36.40;99.90;;;;;;5051372;28;20276;-59
2023/08/20 06:31:33;;;;;;;8.65;6.10;;;36.00;99.90;;;;;;5051337;28;20425;-58
2023/08/20 06:34:00;;;;;;;6.97;5.45;;;35.20;99.90;;;;;;5052436;28;20298;-59
2023/08/20 06:36:27;;;;;;;7.68;5.50;;;34.90;99.90;;;;;;5057522;28;20661;-59
2023/08/20 06:38:55;;;;;;;8.57;5.80;;;34.90;99.90;;;;;;5057984;28;20292;-59
2023/08/20 06:41:21;;;;;;;10.35;5.30;;;34.90;99.90;;;;;;5057920;28;20307;-59
2023/08/20 06:43:48;;;;;;;7.43;5.32;;;35.50;99.90;;;;;;5057779;28;20225;-60
2023/08/20 06:46:15;;;;;;;5.90;5.25;;;36.00;99.90;;;;;;5057549;28;20209;-59
2023/08/20 06:48:42;;;;;;;6.13;5.60;;;36.40;99.90;;;;;;5057549;28;20208;-58
2023/08/20 06:51:11;;;;;;;8.00;5.40;;;36.80;99.90;;;;;;5057865;28;20209;-58
2023/08/20 06:53:38;;;;;;;6.75;5.47;;;37.50;99.90;;;;;;5057558;28;20434;-59
2023/08/20 06:56:06;;;;;;;7.88;6.03;;;38.40;99.30;;;;;;5057703;28;20205;-60
2023/08/20 06:58:33;;;;;;;8.45;5.68;;;39.40;96.80;;;;;;5057772;28;20205;-61
2023/08/20 07:01:07;;;;;;;8.30;5.55;;;40.10;94.70;;;;;;5057526;28;20204;-61
2023/08/20 07:03:34;;;;;;;7.18;5.47;;;40.30;93.50;;;;;;5057833;28;20262;-62
2023/08/20 07:06:01;;;;;;;6.65;5.55;;;39.40;94.20;;;;;;5057443;28;20581;-61
2023/08/20 07:08:27;;;;;;;6.13;5.15;;;39.30;94.30;;;;;;5057613;28;20216;-61
2023/08/20 07:10:54;;;;;;;9.05;6.40;;;39.70;93.70;;;;;;5057615;28;20208;-60
2023/08/20 07:13:22;;;;;;;10.00;6.10;;;40.00;92.30;;;;;;5057352;28;20304;-62
2023/08/20 07:15:49;;;;;;;7.75;6.45;;;39.20;93.30;;;;;;5057544;28;20205;-60
2023/08/20 07:18:16;;;;;;;8.38;6.70;;;38.70;93.70;;;;;;5057546;28;20208;-60
2023/08/20 07:20:43;;;;;;;10.90;6.13;;;38.20;94.30;;;;;;5057545;28;20205;-60
2023/08/20 07:23:10;;;;;;;8.07;5.63;;;37.90;95.30;;;;;;5057455;28;20228;-61
2023/08/20 07:25:38;;;;;;;8.68;5.70;;;38.60;94.40;;;;;;5057679;28;20212;-61
2023/08/20 07:28:05;;;;;;;6.55;5.80;;;39.60;92.50;;;;;;5057277;28;20231;-61
2023/08/20 07:30:33;;;;;;;9.13;6.63;;;40.00;91.60;;;;;;5057392;28;20242;-61
2023/08/20 07:33:00;;;;;;;9.20;5.85;;;39.50;91.50;;;;;;5057575;28;20270;-61
2023/08/20 07:35:27;;;;;;;6.95;6.07;;;38.60;92.70;;;;;;5057573;28;20236;-61
2023/08/20 07:37:53;;;;;;;8.85;6.22;;;37.90;93.80;;;;;;5057527;28;20691;-61
2023/08/20 07:40:21;;;;;;;10.43;5.90;;;37.50;94.30;;;;;;5057941;28;20212;-61
2023/08/20 07:42:47;;;;;;;8.73;6.65;;;36.90;95.20;;;;;;5056988;28;20240;-60
2023/08/20 07:45:14;;;;;;;9.15;6.32;;;36.10;96.50;;;;;;5089141;22;20240;-63
2023/08/20 07:47:42;;;;;;;11.90;6.30;;;35.90;97.00;;;;;;5067836;28;20204;-65
2023/08/20 07:50:09;;;;;;;8.05;6.20;;;36.70;96.60;;;;;;5074394;28;20205;-63
2023/08/20 07:52:36;;;;;;;8.80;6.20;;;37.90;94.70;;;;;;5074283;28;20684;-64
2023/08/20 07:55:02;;;;;;;8.93;5.97;;;38.80;93.30;;;;;;5074182;28;20231;-64
2023/08/20 07:57:29;;;;;;;9.77;5.80;;;39.10;92.60;;;;;;5074161;28;20694;-63
2023/08/20 07:59:56;;;;;;;9.15;5.93;;;40.00;91.10;;;;;;5074762;28;20200;-63
2023/08/20 08:02:23;;;;;;;11.30;6.53;;;40.40;90.30;;;;;;5073950;28;20292;-64
2023/08/20 08:04:51;;;;;;;7.40;5.95;;;40.20;90.00;;;;;;5073777;28;20723;-63
2023/08/20 08:07:17;;;;;;;10.75;6.00;;;39.80;90.30;;;;;;5073584;28;20207;-64
2023/08/20 08:09:45;;;;;;;6.75;6.05;;;39.60;90.50;;;;;;5073684;28;20208;-63
2023/08/20 08:12:12;;;;;;;10.73;6.00;;;39.50;90.90;;;;;;5074014;28;20571;-64
2023/08/20 08:14:38;;;;;;;7.60;6.20;;;40.10;90.00;;;;;;5073922;28;20232;-63
2023/08/20 08:17:05;;;;;;;6.70;5.72;;;41.10;87.00;;;;;;5073925;28;20212;-64
2023/08/20 08:19:32;;;;;;;7.20;5.45;;;41.80;84.80;;;;;;5073666;28;20212;-65
2023/08/20 08:22:00;;;;;;;12.32;6.00;;;42.40;82.20;;;;;;5073373;28;20204;-64
2023/08/20 08:24:27;;;;;;;10.05;5.90;;;42.70;80.20;;;;;;5073383;28;20229;-63
2023/08/20 08:26:54;;;;;;;11.05;6.68;;;41.40;82.30;;;;;;5061654;28;20673;-67
2023/08/20 08:29:20;;;;;;;8.95;6.47;;;39.90;85.40;;;;;;5052429;28;20209;-64
2023/08/20 08:31:47;;;;;;;7.47;6.35;;;38.40;89.80;;;;;;5052359;28;20212;-65
2023/08/20 08:34:14;;;;;;;7.60;6.38;;;37.00;91.90;;;;;;5052109;28;20667;-63
2023/08/20 08:36:41;;;;;;;7.95;6.32;;;35.80;93.40;;;;;;5057963;28;20680;-62
2023/08/20 08:39:09;;;;;;;8.27;6.80;;;34.90;95.40;;;;;;5072393;28;20307;-61
2023/08/20 08:41:39;;;;;;;11.45;6.85;;;34.00;97.20;;;;;;5072190;28;20236;-63
2023/08/20 08:44:09;;;;;;;8.63;6.85;;;33.30;99.00;;;;;;5072073;28;20256;-63
2023/08/20 08:46:38;;;;;;;9.05;6.75;;;33.20;99.70;;;;;;5072009;28;20204;-65
2023/08/20 08:49:05;;;;;;;9.65;7.03;;;33.10;99.90;;;;;;5071979;28;20220;-64
2023/08/20 08:51:33;;;;;;;9.60;7.00;;;32.90;99.90;;;;;;5072228;28;20204;-62
2023/08/20 08:54:01;;;;;;;8.88;7.97;;;32.80;99.90;;;;;;5071836;28;20225;-63
2023/08/20 08:56:30;;;;;;;8.30;7.13;;;32.80;99.90;;;;;;5072287;28;20628;-61
2023/08/20 08:58:56;;;;;;;9.82;7.00;;;32.70;99.90;;;;;;5070945;28;20235;-62
2023/08/20 09:01:23;;;;;;;7.50;6.80;;;32.60;99.90;;;;;;5071696;28;20676;-62
2023/08/20 09:03:50;;;;;;;12.02;7.22;;;32.70;99.90;;;;;;5072748;28;20229;-63
2023/08/20 09:06:17;;;;;;;8.15;6.68;;;32.90;99.90;;;;;;5057044;28;20227;-64
2023/08/20 09:08:44;;;;;;;12.23;7.03;;;33.00;99.90;;;;;;5051753;28;20283;-64
2023/08/20 09:11:10;;;;;;;11.68;6.82;;;33.20;99.90;;;;;;5051674;28;20202;-62
2023/08/20 09:13:40;;;;;;;11.77;6.35;;;33.10;99.90;;;;;;5051675;28;20222;-66
2023/08/20 09:16:08;;;;;;;9.02;6.45;;;33.10;99.90;;;;;;5050538;28;20226;-66
2023/08/20 09:18:39;;;;;;;8.70;6.53;;;33.00;99.90;;;;;;5051061;28;20579;-64
2023/08/20 09:21:08;;;;;;;10.35;6.68;;;32.80;99.90;;;;;;5051205;28;20239;-65
2023/08/20 09:23:35;;;;;;;9.48;7.10;;;32.70;99.90;;;;;;5052090;28;20217;-64
2023/08/20 09:26:03;;;;;;;9.02;7.50;;;32.50;99.90;;;;;;5071471;28;20201;-65
2023/08/20 09:28:41;;;;;;;7.95;6.82;;;32.20;99.90;;;;;;5071151;28;20319;-64
2023/08/20 09:31:09;;;;;;;9.23;7.13;;;32.00;99.90;;;;;;5071248;28;20209;-61
2023/08/20 09:33:36;;;;;;;7.30;6.55;;;31.90;99.90;;;;;;5071017;28;20232;-63
2023/08/20 09:36:04;;;;;;;10.93;6.80;;;31.90;99.90;;;;;;5071008;28;20265;-61
2023/08/20 09:38:37;;;;;;;9.05;6.75;;;32.00;99.90;;;;;;5072013;28;20205;-59
2023/08/20 09:41:04;;;;;;;8.55;6.70;;;32.20;99.90;;;;;;5071727;28;20567;-60
2023/08/20 09:43:34;;;;;;;7.82;6.40;;;32.10;99.90;;;;;;5071691;28;20240;-61
2023/08/20 09:46:03;;;;;;;7.68;6.45;;;32.10;99.90;;;;;;5071651;28;20582;-60
2023/08/20 09:48:34;;;;;;;7.50;6.60;;;31.90;99.90;;;;;;5071836;28;20205;-60
2023/08/20 09:51:06;;;;;;;7.93;5.78;;;31.90;99.90;;;;;;5072431;28;20200;-60
2023/08/20 09:53:38;;;;;;;6.78;6.03;;;32.10;99.90;;;;;;5072521;28;20232;-59
2023/08/20 09:56:14;;;;;;;13.55;6.93;;;32.30;99.90;;;;;;5071241;28;20225;-60
2023/08/20 09:58:41;;;;;;;7.90;6.72;;;32.60;99.90;;;;;;5071991;28;20204;-61
2023/08/20 10:01:08;;;;;;;7.55;6.18;;;32.80;99.90;;;;;;5071492;28;20676;-61
2023/08/20 10:03:37;;;;;;;12.38;10.13;;;32.80;99.90;;;;;;5071651;28;20229;-61
2023/08/20 10:06:04;;;;;;;9.27;6.10;;;32.80;99.90;;;;;;5071141;28;20601;-61
2023/08/20 10:08:31;;;;;;;10.02;5.95;;;32.90;99.90;;;;;;5071276;28;20209;-61
2023/08/20 10:10:58;;;;;;;10.88;5.63;;;33.00;99.90;;;;;;5071824;28;20216;-61
2023/08/20 10:13:25;;;;;;;6.82;5.65;;;33.00;99.90;;;;;;5071161;28;20229;-62
2023/08/20 10:15:54;;;;;;;8.35;5.20;;;32.80;99.90;;;;;;5071211;28;20228;-62
2023/08/20 10:18:21;;;;;;;7.03;5.95;;;32.70;99.90;;;;;;5071410;28;20204;-61
2023/08/20 10:20:51;;;;;;;10.27;6.10;;;32.60;99.90;;;;;;5070921;28;20209;-61
2023/08/20 10:23:21;;;;;;;6.68;5.22;;;32.60;99.90;;;;;;5071232;28;20212;-61
2023/08/20 10:25:48;;;;;;;11.10;5.55;;;32.60;99.90;;;;;;5071133;28;20200;-60
2023/08/20 10:28:21;;;;;;;10.02;5.43;;;32.50;99.90;;;;;;5071414;28;20212;-62
2023/08/20 10:31:08;;;;;;;7.90;5.75;;;32.50;99.90;;;;;;5071117;28;20212;-60
2023/08/20 10:33:36;;;;;;;7.32;6.20;;;32.30;99.90;;;;;;5071080;28;20735;-62
2023/08/20 10:36:14;;;;;;;9.50;5.72;;;32.20;99.90;;;;;;5070839;28;20320;-61
2023/08/20 10:38:41;;;;;;;10.75;5.28;;;32.30;99.90;;;;;;5071229;28;20680;-61
2023/08/20 10:41:09;;;;;;;6.95;5.78;;;32.50;99.90;;;;;;5070984;28;20561;-61
2023/08/20 10:43:37;;;;;;;15.27;11.40;;;32.70;99.90;;;;;;5070813;28;20244;-61
2023/08/20 10:46:23;;;;;;;10.90;6.72;;;32.90;99.90;;;;;;5070893;28;20482;-62
2023/08/20 10:48:51;;;;;;;7.13;5.70;;;33.10;99.90;;;;;;5071331;28;20595;-61
2023/08/20 10:51:25;;;;;;;6.82;5.65;;;33.20;99.90;;;;;;5070767;28;20212;-62
2023/08/20 10:54:06;;;;;;;6.45;5.38;;;33.20;99.90;;;;;;5071165;28;20229;-61
2023/08/20 10:56:41;;;;;;;10.50;5.85;;;33.10;99.90;;;;;;5071175;28;20574;-61
2023/08/20 10:59:09;;;;;;;7.72;5.20;;;33.00;99.90;;;;;;5071141;28;20209;-61
2023/08/20 11:01:36;;;;;;;10.35;4.80;;;33.00;99.90;;;;;;5071123;28;20209;-62
2023/08/20 11:04:07;;;;;;;7.90;5.20;;;33.10;99.90;;;;;;5070999;28;20727;-61
2023/08/20 11:06:35;;;;;;;7.30;4.90;;;33.20;99.90;;;;;;5070726;28;20212;-61
2023/08/20 11:09:05;;;;;;;6.05;4.95;;;33.10;99.90;;;;;;5070693;28;20641;-61
2023/08/20 11:11:32;;;;;;;6.50;4.97;;;33.00;99.90;;;;;;5071100;28;20668;-61
2023/08/20 11:14:07;;;;;;;7.13;4.63;;;33.00;99.90;;;;;;5070696;28;20256;-61
2023/08/20 11:16:34;;;;;;;6.95;5.00;;;33.00;99.90;;;;;;5070470;28;20260;-61
2023/08/20 11:19:00;;;;;;;6.32;4.55;;;32.90;99.90;;;;;;5071183;28;20212;-61
2023/08/20 11:21:29;;;;;;;8.18;5.03;;;32.80;99.90;;;;;;5072278;28;20703;-61
2023/08/20 11:23:58;;;;;;;8.40;5.18;;;32.70;99.90;;;;;;5074718;28;20271;-61
2023/08/20 11:26:25;;;;;;;6.03;4.90;;;32.80;99.90;;;;;;5074762;28;20312;-61
2023/08/20 11:28:52;;;;;;;7.72;4.82;;;33.00;99.90;;;;;;5075066;28;20209;-61
2023/08/20 11:31:19;;;;;;;8.88;4.93;;;33.30;99.60;;;;;;5074290;28;20237;-61
2023/08/20 11:33:47;;;;;;;8.93;5.72;;;33.40;98.80;;;;;;5074404;28;20228;-61
2023/08/20 11:36:15;;;;;;;7.63;4.55;;;33.30;98.60;;;;;;5074153;28;20754;-60
2023/08/20 11:38:42;;;;;;;6.47;4.70;;;33.40;99.10;;;;;;5074355;28;20201;-61
2023/08/20 11:41:10;;;;;;;9.13;5.15;;;33.40;98.30;;;;;;5074230;28;20216;-61
2023/08/20 11:43:37;;;;;;;8.60;6.15;;;33.30;99.40;;;;;;5073871;28;20252;-61
2023/08/20 11:46:04;;;;;;;7.72;4.22;;;33.30;99.50;;;;;;5073886;28;20466;-61
2023/08/20 11:48:31;;;;;;;8.68;4.50;;;33.30;98.20;;;;;;5073821;28;20365;-61
2023/08/20 11:50:58;;;;;;;11.23;4.35;;;33.30;97.80;;;;;;5074395;28;20362;-61
2023/08/20 11:53:25;;;;;;;9.45;4.57;;;33.30;98.00;;;;;;5073993;28;20258;-61
2023/08/20 11:55:51;;;;;;;8.65;5.50;;;33.40;97.60;;;;;;5073804;28;20248;-61
2023/08/20 11:58:21;;;;;;;7.03;4.28;;;33.40;97.80;;;;;;5073588;28;20274;-60
2023/08/20 12:00:50;;;;;;;7.80;4.55;;;33.60;97.30;;;;;;5073768;28;20742;-61
2023/08/20 12:03:16;;;;;;;5.88;4.65;;;33.70;97.30;;;;;;5073494;28;20205;-60
2023/08/20 12:05:43;;;;;;;10.48;4.70;;;33.80;96.50;;;;;;5073489;28;20204;-61
2023/08/20 12:08:16;;;;;;;6.38;4.50;;;33.90;96.30;;;;;;5073250;28;20728;-61
2023/08/20 12:10:44;;;;;;;7.95;4.45;;;34.00;96.30;;;;;;5073744;28;20209;-61
2023/08/20 12:13:11;;;;;;;7.07;3.90;;;34.20;96.00;;;;;;5073379;28;20228;-60
2023/08/20 12:15:39;;;;;;;6.03;3.88;;;34.20;95.70;;;;;;5073222;28;20228;-59
2023/08/20 12:18:08;;;;;;;5.38;4.05;;;34.20;96.10;;;;;;5073621;28;20201;-60
2023/08/20 12:20:36;;;;;;;7.88;3.90;;;34.30;95.40;;;;;;5073586;28;20266;-60
2023/08/20 12:23:04;;;;;;;8.15;4.47;;;34.30;93.90;;;;;;5073169;28;20565;-61
2023/08/20 12:25:33;;;;;;;6.60;3.90;;;34.20;93.90;;;;;;5073110;28;20208;-61
2023/08/20 12:28:00;;;;;;;6.45;4.03;;;34.30;93.90;;;;;;5072727;28;20529;-60
2023/08/20 12:30:27;;;;;;;6.32;4.32;;;34.40;94.10;;;;;;5073290;28;20212;-60
2023/08/20 12:32:55;;;;;;;6.07;3.90;;;34.50;93.50;;;;;;5073163;28;20211;-61
2023/08/20 12:35:21;;;;;;;7.47;3.97;;;34.60;93.00;;;;;;5072868;28;20229;-61
2023/08/20 12:37:48;;;;;;;10.57;5.05;;;34.70;92.20;;;;;;5072881;28;20660;-61
2023/08/20 12:40:15;;;;;;;6.18;3.90;;;34.80;91.30;;;;;;5073393;28;20201;-61
2023/08/20 12:42:42;;;;;;;6.00;3.63;;;34.90;91.60;;;;;;5072970;28;20211;-61
2023/08/20 12:45:10;;;;;;;8.57;3.60;;;34.90;91.80;;;;;;5073135;28;20248;-61
2023/08/20 12:47:37;;;;;;;6.53;4.30;;;34.70;91.60;;;;;;5073087;28;20212;-60